createdAt,value
2019-04-01T00:01:02.774Z,11.20
2019-04-01T00:03:32.122Z,11.13
2019-04-01T00:06:01.499Z,11.06
2019-04-01T00:08:30.868Z,11.00
2019-04-01T00:11:00.219Z,11.02
2019-04-01T00:13:29.592Z,10.89
2019-04-01T00:15:58.954Z,10.88
2019-04-01T00:18:28.313Z,10.91
2019-04-01T00:20:57.657Z,10.86
2019-04-01T00:23:27.000Z,10.76
2019-04-01T00:25:56.356Z,10.69
2019-04-01T00:28:25.698Z,10.75
2019-04-01T00:30:55.070Z,10.63
2019-04-01T00:33:24.412Z,10.56
2019-04-01T00:35:53.760Z,10.57
2019-04-01T00:38:23.136Z,10.53
2019-04-01T00:40:52.467Z,10.51
2019-04-01T00:43:29.544Z,10.49
2019-04-01T00:45:59.652Z,10.57
2019-04-01T00:48:29.022Z,10.54
2019-04-01T00:50:58.359Z,10.45
2019-04-01T00:53:27.706Z,10.40
2019-04-01T00:55:57.078Z,10.43
2019-04-01T00:58:26.409Z,10.46
2019-04-01T01:00:55.775Z,10.40
2019-04-01T01:03:25.116Z,10.30
2019-04-01T01:05:54.985Z,10.28
2019-04-01T01:08:24.339Z,10.29
2019-04-01T01:10:53.692Z,10.19
2019-04-01T01:13:23.077Z,10.23
2019-04-01T01:15:52.423Z,10.22
2019-04-01T01:18:21.776Z,10.19
2019-04-01T01:20:51.136Z,10.00
2019-04-01T01:23:20.473Z,10.01
2019-04-01T01:25:49.848Z,10.00
2019-04-01T01:28:19.198Z,10.05
2019-04-01T01:30:48.532Z,9.98
2019-04-01T01:33:17.892Z,9.88
2019-04-01T01:35:47.236Z,9.86
2019-04-01T01:38:18.225Z,9.79
2019-04-01T01:40:47.584Z,9.82
2019-04-01T01:43:16.931Z,9.79
2019-04-01T01:45:46.280Z,9.78
2019-04-01T01:48:15.627Z,9.71
2019-04-01T01:50:45.015Z,9.68
2019-04-01T01:53:14.361Z,9.63
2019-04-01T01:55:43.702Z,9.70
2019-04-01T01:58:13.074Z,9.64
2019-04-01T02:00:42.773Z,9.61
2019-04-01T02:03:12.145Z,9.50
2019-04-01T02:05:41.478Z,9.53
2019-04-01T02:08:10.841Z,9.45
2019-04-01T02:10:40.203Z,9.49
2019-04-01T02:13:09.549Z,9.48
2019-04-01T02:15:38.922Z,9.45
2019-04-01T02:18:08.267Z,9.39
2019-04-01T02:20:37.618Z,9.33
2019-04-01T02:23:06.973Z,9.36
2019-04-01T02:25:36.321Z,9.33
2019-04-01T02:28:05.703Z,9.23
2019-04-01T02:30:35.045Z,9.27
2019-04-01T02:33:04.395Z,9.24
2019-04-01T02:35:33.767Z,9.26
2019-04-01T02:38:03.095Z,9.20
2019-04-01T02:40:32.971Z,9.18
2019-04-01T02:43:02.313Z,9.14
2019-04-01T02:45:31.644Z,9.13
2019-04-01T02:48:01.013Z,9.09
2019-04-01T02:50:30.339Z,9.03
2019-04-01T02:52:59.696Z,9.04
2019-04-01T02:55:29.034Z,8.97
2019-04-01T02:57:58.364Z,8.92
2019-04-01T03:00:27.728Z,8.88
2019-04-01T03:02:57.050Z,8.87
2019-04-01T03:05:26.447Z,8.83
2019-04-01T03:07:55.767Z,8.82
2019-04-01T03:10:25.108Z,8.68
2019-04-01T03:12:54.468Z,8.69
2019-04-01T03:15:23.803Z,8.60
2019-04-01T03:17:53.183Z,8.58
2019-04-01T03:20:24.172Z,8.55
2019-04-01T03:22:53.589Z,8.55
2019-04-01T03:25:22.933Z,8.52
2019-04-01T03:27:52.298Z,8.51
2019-04-01T03:30:21.659Z,8.46
2019-04-01T03:32:51.998Z,8.46
2019-04-01T03:35:21.321Z,8.45
2019-04-01T03:37:50.686Z,8.41
2019-04-01T03:40:20.079Z,8.36
2019-04-01T03:42:49.473Z,8.39
2019-04-01T03:45:18.828Z,8.34
2019-04-01T03:47:48.155Z,8.35
2019-04-01T03:50:17.535Z,8.28
2019-04-01T03:52:46.868Z,8.27
2019-04-01T03:55:16.232Z,8.27
2019-04-01T03:57:45.587Z,8.28
2019-04-01T04:00:14.934Z,8.29
2019-04-01T04:02:44.285Z,8.27
2019-04-01T04:05:13.619Z,8.18
2019-04-01T04:07:42.995Z,8.13
2019-04-01T04:10:12.345Z,8.12
2019-04-01T04:12:41.678Z,8.14
2019-04-01T04:15:11.211Z,8.13
2019-04-01T04:17:40.567Z,8.08
2019-04-01T04:20:09.940Z,8.07
2019-04-01T04:22:39.270Z,8.08
2019-04-01T04:25:08.697Z,8.02
2019-04-01T04:27:38.145Z,8.00
2019-04-01T04:30:08.070Z,7.91
2019-04-01T04:32:37.433Z,7.95
2019-04-01T04:35:07.210Z,7.98
2019-04-01T04:37:36.623Z,7.96
2019-04-01T04:40:08.008Z,7.94
2019-04-01T04:42:37.418Z,7.90
2019-04-01T04:45:09.516Z,7.85
2019-04-01T04:47:38.159Z,7.93
2019-04-01T04:50:07.558Z,7.86
2019-04-01T04:52:36.884Z,7.83
2019-04-01T04:55:06.671Z,7.82
2019-04-01T04:57:36.063Z,7.80
2019-04-01T05:00:07.412Z,7.77
2019-04-01T05:02:36.864Z,7.69
2019-04-01T05:05:07.602Z,7.74
2019-04-01T05:07:36.933Z,7.73
2019-04-01T05:10:08.232Z,7.82
2019-04-01T05:12:37.572Z,7.83
2019-04-01T05:15:10.054Z,7.76
2019-04-01T05:17:39.398Z,7.83
2019-04-01T05:20:08.745Z,7.85
2019-04-01T05:22:38.267Z,8.28
2019-04-01T05:25:07.665Z,8.79
2019-04-01T05:27:37.047Z,9.23
2019-04-01T05:30:07.065Z,9.61
2019-04-01T05:32:37.847Z,9.92
2019-04-01T05:35:08.032Z,9.84
2019-04-01T05:37:37.360Z,9.91
2019-04-01T05:40:07.000Z,9.75
2019-04-01T05:42:36.820Z,9.50
2019-04-01T05:45:09.205Z,9.30
2019-04-01T05:47:48.703Z,9.35
2019-04-01T05:50:18.055Z,9.27
2019-04-01T05:52:47.412Z,9.44
2019-04-01T05:55:16.739Z,9.62
2019-04-01T05:57:49.446Z,9.62
2019-04-01T06:00:20.960Z,9.81
2019-04-01T06:02:50.541Z,9.79
2019-04-01T06:05:20.670Z,9.62
2019-04-01T06:07:50.005Z,9.30
2019-04-01T06:10:19.354Z,9.06
2019-04-01T06:12:49.180Z,8.86
2019-04-01T06:15:18.520Z,8.74
2019-04-01T06:17:47.883Z,8.76
2019-04-01T06:20:17.319Z,8.73
2019-04-01T06:22:46.637Z,8.73
2019-04-01T06:25:16.011Z,8.68
2019-04-01T06:27:45.337Z,8.65
2019-04-01T06:30:14.958Z,8.66
2019-04-01T06:32:44.298Z,8.56
2019-04-01T06:35:13.644Z,8.60
2019-04-01T06:37:42.994Z,8.59
2019-04-01T06:40:12.338Z,8.62
2019-04-01T06:42:41.692Z,8.55
2019-04-01T06:45:11.130Z,8.62
2019-04-01T06:47:40.465Z,8.62
2019-04-01T06:50:09.829Z,8.62
2019-04-01T06:52:39.171Z,8.63
2019-04-01T06:55:08.519Z,8.71
2019-04-01T06:57:37.952Z,8.81
2019-04-01T07:00:07.289Z,8.80
2019-04-01T07:02:36.622Z,8.84
2019-04-01T07:05:06.977Z,8.90
2019-04-01T07:07:36.308Z,8.94
2019-04-01T07:10:05.823Z,8.95
2019-04-01T07:12:35.196Z,9.04
2019-04-01T07:15:06.933Z,9.13
2019-04-01T07:17:36.357Z,9.25
2019-04-01T07:20:08.681Z,9.25
2019-04-01T07:22:37.673Z,9.40
2019-04-01T07:25:07.045Z,9.45
2019-04-01T07:27:36.475Z,9.52
2019-04-01T07:30:07.118Z,9.58
2019-04-01T07:32:36.458Z,9.58
2019-04-01T07:35:06.683Z,9.74
2019-04-01T07:37:36.126Z,9.87
2019-04-01T07:40:06.537Z,9.99
2019-04-01T07:42:35.888Z,10.00
2019-04-01T07:45:07.256Z,10.02
2019-04-01T07:47:36.673Z,10.09
2019-04-01T07:50:06.625Z,10.23
2019-04-01T07:52:35.971Z,10.35
2019-04-01T07:55:07.454Z,10.36
2019-04-01T07:57:36.869Z,10.42
2019-04-01T08:00:07.657Z,10.47
2019-04-01T08:02:37.123Z,10.55
2019-04-01T08:05:06.845Z,10.68
2019-04-01T08:07:36.185Z,10.76
2019-04-01T08:10:07.396Z,10.84
2019-04-01T08:12:36.734Z,10.90
2019-04-01T08:15:07.742Z,10.89
2019-04-01T08:17:37.126Z,10.98
2019-04-01T08:20:06.961Z,11.09
2019-04-01T08:22:36.316Z,11.14
2019-04-01T08:25:09.037Z,11.24
2019-04-01T08:27:38.418Z,11.41
2019-04-01T08:30:08.788Z,11.49
2019-04-01T08:32:38.138Z,11.54
2019-04-01T08:35:09.209Z,11.67
2019-04-01T08:37:40.581Z,11.79
2019-04-01T08:40:09.662Z,11.80
2019-04-01T08:42:39.060Z,11.94
2019-04-01T08:45:09.033Z,12.02
2019-04-01T08:47:38.406Z,12.14
2019-04-01T08:50:08.087Z,12.24
2019-04-01T08:52:37.464Z,12.23
2019-04-01T08:55:10.114Z,12.28
2019-04-01T08:57:39.471Z,12.25
2019-04-01T09:00:09.984Z,12.39
2019-04-01T09:02:39.331Z,12.47
2019-04-01T09:05:08.716Z,12.58
2019-04-01T09:07:38.078Z,12.63
2019-04-01T09:10:07.434Z,12.74
2019-04-01T09:12:36.801Z,12.72
2019-04-01T09:15:06.145Z,12.86
2019-04-01T09:17:35.525Z,12.97
2019-04-01T09:20:05.537Z,13.09
2019-04-01T09:22:34.897Z,13.18
2019-04-01T09:25:05.596Z,13.41
2019-04-01T09:27:34.953Z,13.52
2019-04-01T09:30:07.694Z,13.68
2019-04-01T09:32:37.046Z,13.75
2019-04-01T09:35:07.460Z,13.85
2019-04-01T09:37:36.844Z,13.95
2019-04-01T09:40:07.881Z,14.05
2019-04-01T09:42:37.281Z,14.18
2019-04-01T09:45:09.378Z,14.43
2019-04-01T09:47:38.009Z,14.55
2019-04-01T09:50:07.408Z,14.50
2019-04-01T09:52:36.764Z,14.63
2019-04-01T09:55:07.483Z,14.73
2019-04-01T09:57:36.829Z,14.74
2019-04-01T10:00:09.574Z,14.84
2019-04-01T10:02:38.952Z,15.01
2019-04-01T10:05:08.435Z,15.07
2019-04-01T10:07:37.923Z,15.09
2019-04-01T10:10:07.670Z,15.17
2019-04-01T10:12:37.875Z,15.39
2019-04-01T10:15:08.098Z,15.58
2019-04-01T10:17:38.419Z,15.62
2019-04-01T10:20:08.849Z,15.66
2019-04-01T10:22:38.202Z,15.69
2019-04-01T10:25:07.548Z,15.85
2019-04-01T10:27:36.906Z,16.00
2019-04-01T10:30:09.542Z,16.08
2019-04-01T10:32:38.942Z,16.20
2019-04-01T10:35:08.513Z,16.36
2019-04-01T10:37:37.866Z,16.44
2019-04-01T10:40:07.973Z,16.44
2019-04-01T10:42:37.317Z,16.70
2019-04-01T10:45:09.253Z,16.82
2019-04-01T10:47:38.596Z,17.00
2019-04-01T10:50:09.059Z,17.03
2019-04-01T10:52:38.808Z,16.94
2019-04-01T10:55:08.256Z,16.95
2019-04-01T10:57:37.679Z,17.11
2019-04-01T11:00:08.990Z,17.21
2019-04-01T11:02:38.456Z,17.27
2019-04-01T11:05:08.392Z,17.48
2019-04-01T11:07:37.967Z,17.60
2019-04-01T11:10:11.456Z,17.71
2019-04-01T11:12:39.270Z,17.85
2019-04-01T11:15:09.691Z,17.75
2019-04-01T11:17:39.057Z,17.57
2019-04-01T11:20:08.544Z,17.85
2019-04-01T11:22:37.952Z,18.06
2019-04-01T11:25:08.255Z,18.16
2019-04-01T11:27:37.728Z,18.30
2019-04-01T11:30:08.454Z,18.49
2019-04-01T11:32:38.148Z,18.58
2019-04-01T11:35:07.870Z,18.73
2019-04-01T11:37:37.378Z,18.79
2019-04-01T11:40:11.715Z,18.84
2019-04-01T11:42:41.049Z,18.79
2019-04-01T11:45:10.506Z,18.81
2019-04-01T11:47:39.951Z,19.08
2019-04-01T11:50:09.288Z,19.22
2019-04-01T11:52:38.681Z,19.21
2019-04-01T11:55:09.114Z,19.31
2019-04-01T11:57:40.583Z,19.46
2019-04-01T12:00:13.312Z,19.72
2019-04-01T12:02:42.998Z,19.82
2019-04-01T12:05:12.441Z,19.85
2019-04-01T12:07:41.825Z,20.01
2019-04-01T12:10:11.241Z,20.09
2019-04-01T12:12:40.596Z,20.14
2019-04-01T12:15:12.284Z,20.41
2019-04-01T12:17:41.835Z,20.54
2019-04-01T12:20:11.574Z,20.70
2019-04-01T12:22:45.321Z,20.80
2019-04-01T12:25:12.010Z,21.06
2019-04-01T12:27:41.429Z,20.98
2019-04-01T12:30:10.821Z,20.88
2019-04-01T12:32:40.182Z,20.89
2019-04-01T12:35:09.719Z,21.09
2019-04-01T12:37:39.063Z,21.13
2019-04-01T12:40:08.477Z,21.14
2019-04-01T12:42:37.845Z,21.27
2019-04-01T12:45:08.263Z,21.29
2019-04-01T12:47:37.591Z,21.28
2019-04-01T12:50:06.970Z,21.41
2019-04-01T12:52:36.393Z,21.45
2019-04-01T12:55:07.772Z,21.59
2019-04-01T12:57:37.161Z,21.50
2019-04-01T13:00:09.666Z,21.39
2019-04-01T13:02:39.007Z,21.40
2019-04-01T13:05:08.440Z,21.54
2019-04-01T13:07:37.969Z,21.39
2019-04-01T13:10:08.974Z,21.55
2019-04-01T13:12:38.322Z,21.60
2019-04-01T13:15:07.668Z,21.45
2019-04-01T13:17:37.046Z,21.50
2019-04-01T13:20:07.831Z,21.77
2019-04-01T13:22:37.969Z,21.94
2019-04-01T13:25:07.602Z,22.14
2019-04-01T13:27:36.954Z,22.37
2019-04-01T13:30:07.493Z,22.37
2019-04-01T13:32:36.892Z,22.50
2019-04-01T13:35:07.247Z,22.67
2019-04-01T13:37:36.629Z,22.75
2019-04-01T13:40:06.650Z,22.79
2019-04-01T13:42:36.007Z,22.69
2019-04-01T13:45:07.497Z,22.78
2019-04-01T13:47:36.868Z,23.00
2019-04-01T13:50:07.996Z,23.24
2019-04-01T13:52:37.348Z,23.60
2019-04-01T13:55:06.964Z,23.79
2019-04-01T13:57:36.319Z,23.52
2019-04-01T14:00:07.031Z,23.79
2019-04-01T14:02:36.375Z,24.10
2019-04-01T14:05:07.288Z,24.55
2019-04-01T14:07:36.753Z,25.08
2019-04-01T14:10:07.726Z,25.44
2019-04-01T14:12:37.108Z,25.66
2019-04-01T14:15:07.331Z,25.77
2019-04-01T14:17:36.689Z,25.61
2019-04-01T14:20:06.182Z,25.85
2019-04-01T14:22:35.534Z,25.87
2019-04-01T14:25:07.682Z,25.78
2019-04-01T14:27:37.361Z,25.89
2019-04-01T14:30:07.871Z,25.87
2019-04-01T14:32:37.241Z,26.28
2019-04-01T14:35:07.864Z,26.40
2019-04-01T14:37:37.274Z,26.45
2019-04-01T14:40:08.771Z,26.39
2019-04-01T14:42:39.650Z,26.17
2019-04-01T14:45:08.901Z,26.17
2019-04-01T14:47:55.542Z,26.60
2019-04-01T14:50:09.339Z,26.88
2019-04-01T14:52:38.715Z,27.08
2019-04-01T14:55:08.711Z,27.20
2019-04-01T14:57:38.457Z,27.28
2019-04-01T15:00:15.248Z,27.28
2019-04-01T15:02:45.049Z,27.59
2019-04-01T15:05:14.396Z,27.54
2019-04-01T15:07:43.746Z,27.33
2019-04-01T15:10:13.199Z,27.27
2019-04-01T15:12:42.534Z,27.22
2019-04-01T15:15:11.924Z,27.37
2019-04-01T15:17:41.272Z,27.50
2019-04-01T15:20:10.697Z,27.61
2019-04-01T15:22:40.811Z,27.63
2019-04-01T15:25:10.227Z,27.69
2019-04-01T15:27:39.613Z,27.80
2019-04-01T15:30:09.636Z,27.64
2019-04-01T15:32:38.997Z,27.70
2019-04-01T15:35:08.697Z,27.78
2019-04-01T15:37:38.105Z,28.00
2019-04-01T15:40:07.759Z,28.32
2019-04-01T15:42:37.172Z,28.18
2019-04-01T15:45:06.768Z,28.07
2019-04-01T15:47:36.331Z,27.84
2019-04-01T15:50:06.907Z,27.64
2019-04-01T15:52:36.305Z,27.59
2019-04-01T15:55:07.387Z,27.27
2019-04-01T15:57:36.727Z,27.28
2019-04-01T16:00:07.683Z,27.52
2019-04-01T16:02:37.022Z,27.70
2019-04-01T16:05:08.047Z,27.77
2019-04-01T16:07:37.420Z,27.71
2019-04-01T16:10:09.510Z,27.91
2019-04-01T16:12:38.906Z,27.74
2019-04-01T16:15:09.181Z,27.96
2019-04-01T16:17:39.030Z,27.95
2019-04-01T16:20:08.418Z,27.75
2019-04-01T16:22:37.780Z,27.53
2019-04-01T16:25:08.011Z,27.45
2019-04-01T16:27:37.416Z,27.29
2019-04-01T16:30:08.895Z,26.74
2019-04-01T16:32:38.291Z,26.81
2019-04-01T16:35:08.021Z,26.50
2019-04-01T16:37:37.912Z,26.18
2019-04-01T16:40:07.961Z,25.68
2019-04-01T16:42:37.371Z,25.06
2019-04-01T16:45:08.058Z,24.37
2019-04-01T16:47:37.478Z,23.88
2019-04-01T16:50:08.484Z,23.48
2019-04-01T16:52:37.822Z,22.97
2019-04-01T16:55:08.214Z,22.61
2019-04-01T16:57:37.554Z,22.24
2019-04-01T17:00:10.347Z,21.96
2019-04-01T17:02:39.684Z,21.68
2019-04-01T17:05:09.034Z,21.49
2019-04-01T17:07:38.436Z,21.30
2019-04-01T17:10:07.770Z,21.05
2019-04-01T17:12:37.136Z,20.88
2019-04-01T17:15:06.835Z,20.72
2019-04-01T17:17:36.284Z,20.62
2019-04-01T17:20:07.700Z,20.50
2019-04-01T17:22:37.997Z,20.38
2019-04-01T17:25:07.885Z,20.16
2019-04-01T17:27:37.268Z,19.98
2019-04-01T17:30:08.987Z,19.87
2019-04-01T17:32:38.365Z,19.74
2019-04-01T17:35:08.327Z,19.65
2019-04-01T17:37:38.129Z,19.50
2019-04-01T17:40:09.244Z,19.39
2019-04-01T17:42:39.423Z,19.24
2019-04-01T17:45:22.663Z,19.12
2019-04-01T17:47:52.023Z,18.97
2019-04-01T17:50:21.380Z,18.85
2019-04-01T17:52:50.739Z,18.68
2019-04-01T17:55:20.553Z,18.62
2019-04-01T17:57:49.931Z,18.47
2019-04-01T18:00:20.937Z,18.33
2019-04-01T18:02:50.280Z,18.26
2019-04-01T18:05:19.719Z,18.11
2019-04-01T18:07:49.065Z,17.99
2019-04-01T18:10:18.440Z,17.83
2019-04-01T18:12:47.812Z,17.76
2019-04-01T18:15:20.579Z,17.74
2019-04-01T18:17:48.694Z,17.67
2019-04-01T18:20:20.015Z,17.58
2019-04-01T18:22:49.140Z,17.51
2019-04-01T18:25:18.508Z,17.41
2019-04-01T18:27:47.850Z,17.34
2019-04-01T18:30:17.279Z,17.27
2019-04-01T18:32:46.731Z,17.23
2019-04-01T18:35:16.139Z,17.09
2019-04-01T18:37:45.491Z,16.91
2019-04-01T18:40:14.873Z,16.80
2019-04-01T18:42:44.235Z,16.60
2019-04-01T18:45:13.580Z,16.54
2019-04-01T18:47:43.310Z,16.45
2019-04-01T18:50:14.254Z,16.39
2019-04-01T18:52:43.964Z,16.32
2019-04-01T18:55:13.323Z,16.27
2019-04-01T18:57:42.674Z,16.17
2019-04-01T19:00:12.807Z,16.07
2019-04-01T19:02:42.298Z,15.97
2019-04-01T19:05:13.512Z,15.83
2019-04-01T19:07:42.865Z,15.72
2019-04-01T19:10:12.216Z,15.60
2019-04-01T19:12:41.614Z,15.48
2019-04-01T19:15:11.420Z,15.33
2019-04-01T19:17:40.815Z,15.23
2019-04-01T19:20:11.213Z,15.05
2019-04-01T19:22:40.716Z,14.94
2019-04-01T19:25:10.640Z,14.86
2019-04-01T19:27:40.090Z,14.73
2019-04-01T19:30:09.639Z,14.62
2019-04-01T19:32:39.000Z,14.53
2019-04-01T19:35:09.591Z,14.43
2019-04-01T19:37:39.008Z,14.37
2019-04-01T19:40:08.718Z,14.27
2019-04-01T19:42:39.631Z,14.18
2019-04-01T19:45:12.031Z,14.11
2019-04-01T19:47:41.840Z,14.06
2019-04-01T19:50:11.280Z,14.03
2019-04-01T19:52:40.650Z,13.98
2019-04-01T19:55:09.996Z,14.00
2019-04-01T19:57:39.364Z,14.01
2019-04-01T20:00:09.058Z,13.98
2019-04-01T20:02:38.413Z,14.00
2019-04-01T20:05:08.518Z,14.00
2019-04-01T20:07:37.870Z,13.92
2019-04-01T20:10:07.214Z,13.91
2019-04-01T20:12:36.570Z,13.88
2019-04-01T20:15:12.465Z,13.85
2019-04-01T20:17:42.061Z,13.77
2019-04-01T20:20:14.369Z,13.71
2019-04-01T20:22:42.497Z,13.70
2019-04-01T20:25:11.867Z,13.72
2019-04-01T20:27:41.230Z,13.73
2019-04-01T20:30:11.559Z,13.59
2019-04-01T20:32:40.907Z,13.64
2019-04-01T20:35:22.593Z,13.57
2019-04-01T20:37:41.469Z,13.59
2019-04-01T20:40:11.050Z,13.56
2019-04-01T20:42:40.421Z,13.52
2019-04-01T20:45:11.143Z,13.52
2019-04-01T20:47:40.851Z,13.48
2019-04-01T20:50:11.165Z,13.45
2019-04-01T20:52:40.520Z,13.32
2019-04-01T20:55:09.907Z,13.26
2019-04-01T20:57:39.251Z,13.26
2019-04-01T21:00:09.960Z,13.15
2019-04-01T21:02:39.500Z,13.20
2019-04-01T21:05:09.469Z,13.18
2019-04-01T21:07:38.845Z,13.08
2019-04-01T21:10:08.317Z,13.05
2019-04-01T21:12:37.855Z,13.03
2019-04-01T21:15:07.703Z,12.95
2019-04-01T21:17:37.059Z,12.93
2019-04-01T21:20:09.437Z,12.90
2019-04-01T21:22:38.786Z,12.83
2019-04-01T21:25:08.142Z,12.77
2019-04-01T21:27:37.514Z,12.73
2019-04-01T21:30:11.079Z,12.76
2019-04-01T21:32:40.453Z,12.75
2019-04-01T21:35:09.833Z,12.80
2019-04-01T21:37:39.245Z,12.73
2019-04-01T21:40:08.608Z,12.73
2019-04-01T21:42:38.028Z,12.72
2019-04-01T21:45:10.188Z,12.71
2019-04-01T21:47:38.818Z,12.69
2019-04-01T21:50:08.192Z,12.61
2019-04-01T21:52:37.552Z,12.58
2019-04-01T21:55:08.332Z,12.51
2019-04-01T21:57:38.035Z,12.44
2019-04-01T22:00:11.506Z,12.43
2019-04-01T22:02:41.042Z,12.38
2019-04-01T22:05:10.842Z,12.33
2019-04-01T22:07:40.311Z,12.20
2019-04-01T22:10:11.306Z,12.20
2019-04-01T22:12:40.654Z,12.14
2019-04-01T22:15:09.996Z,12.14
2019-04-01T22:17:39.370Z,12.12
2019-04-01T22:20:09.403Z,12.07
2019-04-01T22:22:39.740Z,12.05
2019-04-01T22:25:09.184Z,12.00
2019-04-01T22:27:38.538Z,12.04
2019-04-01T22:30:08.646Z,11.96
2019-04-01T22:32:38.004Z,12.02
2019-04-01T22:35:08.569Z,11.88
2019-04-01T22:37:38.144Z,11.86
2019-04-01T22:40:07.781Z,11.93
2019-04-01T22:42:37.151Z,11.97
2019-04-01T22:45:09.553Z,11.90
2019-04-01T22:47:38.932Z,11.89
2019-04-01T22:50:10.040Z,11.80
2019-04-01T22:52:42.033Z,11.78
2019-04-01T22:55:10.675Z,11.74
2019-04-01T22:57:40.037Z,11.77
2019-04-01T23:00:09.407Z,11.80
2019-04-01T23:02:38.756Z,11.60
2019-04-01T23:05:08.768Z,11.59
2019-04-01T23:07:38.324Z,11.71
2019-04-01T23:10:08.523Z,11.67
2019-04-01T23:12:37.936Z,11.64
2019-04-01T23:15:10.202Z,11.61
2019-04-01T23:17:39.546Z,11.57
2019-04-01T23:20:09.455Z,11.59
2019-04-01T23:22:38.880Z,11.56
2019-04-01T23:25:08.245Z,11.61
2019-04-01T23:27:37.621Z,11.58
2019-04-01T23:30:09.215Z,11.55
2019-04-01T23:32:41.516Z,11.56
2019-04-01T23:35:09.654Z,11.59
2019-04-01T23:37:39.780Z,11.59
2019-04-01T23:40:09.115Z,11.51
2019-04-01T23:42:38.459Z,11.53
2019-04-01T23:45:08.268Z,11.51
2019-04-01T23:47:37.606Z,11.44
2019-04-01T23:50:09.823Z,11.46
2019-04-01T23:52:39.294Z,11.46
2019-04-01T23:55:08.637Z,11.41
2019-04-01T23:57:38.016Z,11.47
